sensor_id;sensor_type;location;lat;lon;timestamp;P1;durP1;ratioP1;P2;durP2;ratioP2
5591;SDS011;2818;49.790;9.958;2022-10-18T00:00:17;9.30;;;7.13;;
5591;SDS011;2818;49.790;9.958;2022-10-18T00:02:44;7.70;;;6.30;;
5591;SDS011;2818;49.790;9.958;2022-10-18T00:05:10;8.80;;;7.07;;
5591;SDS011;2818;49.790;9.958;2022-10-18T00:07:37;12.27;;;6.73;;
5591;SDS011;2818;49.790;9.958;2022-10-18T00:10:04;9.27;;;6.53;;
5591;SDS011;2818;49.790;9.958;2022-10-18T00:12:35;9.10;;;7.33;;
5591;SDS011;2818;49.790;9.958;2022-10-18T00:15:04;12.13;;;6.77;;
5591;SDS011;2818;49.790;9.958;2022-10-18T00:17:33;16.47;;;7.37;;
5591;SDS011;2818;49.790;9.958;2022-10-18T00:20:00;9.97;;;6.90;;
5591;SDS011;2818;49.790;9.958;2022-10-18T00:22:27;12.53;;;6.93;;
5591;SDS011;2818;49.790;9.958;2022-10-18T00:24:55;9.50;;;6.50;;
5591;SDS011;2818;49.790;9.958;2022-10-18T00:27:22;11.93;;;6.50;;
5591;SDS011;2818;49.790;9.958;2022-10-18T00:29:51;7.70;;;6.83;;
5591;SDS011;2818;49.790;9.958;2022-10-18T00:32:18;17.57;;;7.17;;
5591;SDS011;2818;49.790;9.958;2022-10-18T00:34:45;7.77;;;6.97;;
5591;SDS011;2818;49.790;9.958;2022-10-18T00:37:12;13.93;;;6.90;;
5591;SDS011;2818;49.790;9.958;2022-10-18T00:39:39;7.57;;;6.87;;
5591;SDS011;2818;49.790;9.958;2022-10-18T00:42:06;11.77;;;6.83;;
5591;SDS011;2818;49.790;9.958;2022-10-18T00:47:05;11.50;;;6.77;;
5591;SDS011;2818;49.790;9.958;2022-10-18T00:49:39;8.80;;;7.13;;
5591;SDS011;2818;49.790;9.958;2022-10-18T00:52:20;7.80;;;7.00;;
5591;SDS011;2818;49.790;9.958;2022-10-18T00:54:51;12.03;;;7.33;;
5591;SDS011;2818;49.790;9.958;2022-10-18T00:57:18;9.60;;;6.90;;
5591;SDS011;2818;49.790;9.958;2022-10-18T00:59:45;10.13;;;7.23;;
5591;SDS011;2818;49.790;9.958;2022-10-18T01:02:13;13.77;;;7.20;;
5591;SDS011;2818;49.790;9.958;2022-10-18T01:04:44;10.30;;;6.93;;
5591;SDS011;2818;49.790;9.958;2022-10-18T01:09:59;11.57;;;6.70;;
5591;SDS011;2818;49.790;9.958;2022-10-18T01:12:31;10.87;;;7.37;;
5591;SDS011;2818;49.790;9.958;2022-10-18T01:15:10;10.53;;;7.10;;
5591;SDS011;2818;49.790;9.958;2022-10-18T01:31:00;11.57;;;6.40;;
5591;SDS011;2818;49.790;9.958;2022-10-18T01:33:55;10.03;;;6.40;;
5591;SDS011;2818;49.790;9.958;2022-10-18T01:36:28;8.50;;;6.20;;
5591;SDS011;2818;49.790;9.958;2022-10-18T01:39:02;11.50;;;6.70;;
5591;SDS011;2818;49.790;9.958;2022-10-18T01:41:32;7.40;;;6.70;;
5591;SDS011;2818;49.790;9.958;2022-10-18T01:44:03;7.47;;;6.77;;
5591;SDS011;2818;49.790;9.958;2022-10-18T01:46:32;7.53;;;6.13;;
5591;SDS011;2818;49.790;9.958;2022-10-18T01:49:01;8.57;;;6.83;;
5591;SDS011;2818;49.790;9.958;2022-10-18T01:51:30;16.60;;;6.67;;
5591;SDS011;2818;49.790;9.958;2022-10-18T01:53:58;9.47;;;6.50;;
5591;SDS011;2818;49.790;9.958;2022-10-18T01:56:28;13.13;;;6.70;;
5591;SDS011;2818;49.790;9.958;2022-10-18T01:59:29;11.63;;;6.97;;
5591;SDS011;2818;49.790;9.958;2022-10-18T02:04:34;7.17;;;6.40;;
5591;SDS011;2818;49.790;9.958;2022-10-18T02:09:51;14.57;;;7.30;;
5591;SDS011;2818;49.790;9.958;2022-10-18T02:12:26;8.70;;;7.90;;
5591;SDS011;2818;49.790;9.958;2022-10-18T02:14:56;12.17;;;7.23;;
5591;SDS011;2818;49.790;9.958;2022-10-18T02:17:25;8.40;;;6.87;;
5591;SDS011;2818;49.790;9.958;2022-10-18T02:19:55;8.23;;;7.40;;
5591;SDS011;2818;49.790;9.958;2022-10-18T02:22:24;10.73;;;6.53;;
5591;SDS011;2818;49.790;9.958;2022-10-18T02:24:53;7.20;;;6.63;;
5591;SDS011;2818;49.790;9.958;2022-10-18T02:27:22;9.60;;;7.20;;
5591;SDS011;2818;49.790;9.958;2022-10-18T02:29:50;8.90;;;6.80;;
5591;SDS011;2818;49.790;9.958;2022-10-18T02:32:24;7.97;;;6.90;;
5591;SDS011;2818;49.790;9.958;2022-10-18T02:37:39;13.27;;;6.93;;
5591;SDS011;2818;49.790;9.958;2022-10-18T02:40:08;10.73;;;6.80;;
5591;SDS011;2818;49.790;9.958;2022-10-18T02:42:42;7.20;;;6.50;;
5591;SDS011;2818;49.790;9.958;2022-10-18T02:45:14;18.10;;;6.83;;
5591;SDS011;2818;49.790;9.958;2022-10-18T02:47:42;13.23;;;6.50;;
5591;SDS011;2818;49.790;9.958;2022-10-18T02:50:09;7.80;;;6.57;;
5591;SDS011;2818;49.790;9.958;2022-10-18T02:52:36;11.10;;;7.17;;
5591;SDS011;2818;49.790;9.958;2022-10-18T02:55:03;8.77;;;6.97;;
5591;SDS011;2818;49.790;9.958;2022-10-18T02:57:31;13.13;;;7.30;;
5591;SDS011;2818;49.790;9.958;2022-10-18T02:59:58;7.83;;;7.13;;
5591;SDS011;2818;49.790;9.958;2022-10-18T03:02:25;7.90;;;6.73;;
5591;SDS011;2818;49.790;9.958;2022-10-18T03:04:52;8.60;;;6.63;;
5591;SDS011;2818;49.790;9.958;2022-10-18T03:07:19;7.67;;;6.87;;
5591;SDS011;2818;49.790;9.958;2022-10-18T03:09:46;9.10;;;6.40;;
5591;SDS011;2818;49.790;9.958;2022-10-18T03:12:13;8.53;;;7.00;;
5591;SDS011;2818;49.790;9.958;2022-10-18T03:14:40;9.80;;;6.80;;
5591;SDS011;2818;49.790;9.958;2022-10-18T03:17:06;10.57;;;6.63;;
5591;SDS011;2818;49.790;9.958;2022-10-18T03:19:33;7.27;;;6.47;;
5591;SDS011;2818;49.790;9.958;2022-10-18T03:22:00;13.97;;;7.63;;
5591;SDS011;2818;49.790;9.958;2022-10-18T03:24:27;12.27;;;6.63;;
5591;SDS011;2818;49.790;9.958;2022-10-18T03:26:54;9.77;;;6.23;;
5591;SDS011;2818;49.790;9.958;2022-10-18T03:29:21;10.37;;;6.53;;
5591;SDS011;2818;49.790;9.958;2022-10-18T03:31:47;9.50;;;6.30;;
5591;SDS011;2818;49.790;9.958;2022-10-18T03:34:14;11.47;;;6.70;;
5591;SDS011;2818;49.790;9.958;2022-10-18T03:36:42;10.23;;;7.17;;
5591;SDS011;2818;49.790;9.958;2022-10-18T03:39:10;12.07;;;7.60;;
5591;SDS011;2818;49.790;9.958;2022-10-18T03:41:37;11.37;;;6.70;;
5591;SDS011;2818;49.790;9.958;2022-10-18T03:44:04;11.87;;;7.07;;
5591;SDS011;2818;49.790;9.958;2022-10-18T03:46:31;11.03;;;7.33;;
5591;SDS011;2818;49.790;9.958;2022-10-18T03:48:58;9.30;;;6.93;;
5591;SDS011;2818;49.790;9.958;2022-10-18T03:51:25;13.80;;;7.47;;
5591;SDS011;2818;49.790;9.958;2022-10-18T03:53:52;16.10;;;7.30;;
5591;SDS011;2818;49.790;9.958;2022-10-18T03:56:18;8.80;;;7.43;;
5591;SDS011;2818;49.790;9.958;2022-10-18T03:58:45;9.67;;;7.03;;
5591;SDS011;2818;49.790;9.958;2022-10-18T04:01:12;8.30;;;7.50;;
5591;SDS011;2818;49.790;9.958;2022-10-18T04:03:39;12.13;;;7.30;;
5591;SDS011;2818;49.790;9.958;2022-10-18T04:06:06;12.07;;;8.07;;
5591;SDS011;2818;49.790;9.958;2022-10-18T04:08:35;9.77;;;7.33;;
5591;SDS011;2818;49.790;9.958;2022-10-18T04:11:05;9.23;;;7.63;;
5591;SDS011;2818;49.790;9.958;2022-10-18T04:13:33;9.63;;;7.20;;
5591;SDS011;2818;49.790;9.958;2022-10-18T04:16:01;9.80;;;8.23;;
5591;SDS011;2818;49.790;9.958;2022-10-18T04:18:27;9.50;;;6.60;;
5591;SDS011;2818;49.790;9.958;2022-10-18T04:20:54;8.27;;;7.57;;
5591;SDS011;2818;49.790;9.958;2022-10-18T04:23:21;12.03;;;8.80;;
5591;SDS011;2818;49.790;9.958;2022-10-18T04:25:49;11.47;;;8.67;;
5591;SDS011;2818;49.790;9.958;2022-10-18T04:28:16;14.53;;;11.50;;
5591;SDS011;2818;49.790;9.958;2022-10-18T04:30:47;15.00;;;9.23;;
5591;SDS011;2818;49.790;9.958;2022-10-18T04:33:15;10.37;;;8.60;;
5591;SDS011;2818;49.790;9.958;2022-10-18T04:35:43;10.43;;;8.63;;
5591;SDS011;2818;49.790;9.958;2022-10-18T04:38:10;12.63;;;8.23;;
5591;SDS011;2818;49.790;9.958;2022-10-18T04:40:36;11.43;;;8.67;;
5591;SDS011;2818;49.790;9.958;2022-10-18T04:43:03;11.37;;;8.33;;
5591;SDS011;2818;49.790;9.958;2022-10-18T04:45:30;12.00;;;7.97;;
5591;SDS011;2818;49.790;9.958;2022-10-18T04:47:57;13.23;;;8.30;;
5591;SDS011;2818;49.790;9.958;2022-10-18T04:50:24;13.40;;;8.10;;
5591;SDS011;2818;49.790;9.958;2022-10-18T04:52:51;8.20;;;7.40;;
5591;SDS011;2818;49.790;9.958;2022-10-18T04:55:19;11.60;;;8.30;;
5591;SDS011;2818;49.790;9.958;2022-10-18T04:57:46;10.13;;;7.87;;
5591;SDS011;2818;49.790;9.958;2022-10-18T05:00:13;9.83;;;6.93;;
5591;SDS011;2818;49.790;9.958;2022-10-18T05:02:40;10.60;;;7.80;;
5591;SDS011;2818;49.790;9.958;2022-10-18T05:05:07;9.00;;;7.87;;
5591;SDS011;2818;49.790;9.958;2022-10-18T05:07:39;8.47;;;7.30;;
5591;SDS011;2818;49.790;9.958;2022-10-18T05:10:06;11.90;;;7.70;;
5591;SDS011;2818;49.790;9.958;2022-10-18T05:12:33;7.80;;;7.10;;
5591;SDS011;2818;49.790;9.958;2022-10-18T05:15:00;10.37;;;6.80;;
5591;SDS011;2818;49.790;9.958;2022-10-18T05:17:27;11.33;;;6.70;;
5591;SDS011;2818;49.790;9.958;2022-10-18T05:19:54;9.30;;;6.73;;
5591;SDS011;2818;49.790;9.958;2022-10-18T05:22:21;8.20;;;7.40;;
5591;SDS011;2818;49.790;9.958;2022-10-18T05:24:47;14.50;;;7.50;;
5591;SDS011;2818;49.790;9.958;2022-10-18T05:27:14;7.70;;;7.03;;
5591;SDS011;2818;49.790;9.958;2022-10-18T05:29:41;13.10;;;7.70;;
5591;SDS011;2818;49.790;9.958;2022-10-18T05:32:08;8.23;;;7.43;;
5591;SDS011;2818;49.790;9.958;2022-10-18T05:34:35;8.87;;;8.00;;
5591;SDS011;2818;49.790;9.958;2022-10-18T05:37:02;13.53;;;7.40;;
5591;SDS011;2818;49.790;9.958;2022-10-18T05:39:29;8.47;;;7.63;;
5591;SDS011;2818;49.790;9.958;2022-10-18T05:41:55;14.83;;;7.77;;
5591;SDS011;2818;49.790;9.958;2022-10-18T05:44:23;13.67;;;8.63;;
5591;SDS011;2818;49.790;9.958;2022-10-18T05:46:50;14.33;;;8.70;;
5591;SDS011;2818;49.790;9.958;2022-10-18T05:49:16;9.27;;;8.33;;
5591;SDS011;2818;49.790;9.958;2022-10-18T05:51:43;11.67;;;8.30;;
5591;SDS011;2818;49.790;9.958;2022-10-18T05:54:10;10.93;;;8.53;;
5591;SDS011;2818;49.790;9.958;2022-10-18T05:56:38;13.20;;;8.43;;
5591;SDS011;2818;49.790;9.958;2022-10-18T05:59:05;13.40;;;9.83;;
5591;SDS011;2818;49.790;9.958;2022-10-18T06:01:38;12.13;;;8.90;;
5591;SDS011;2818;49.790;9.958;2022-10-18T06:04:06;9.20;;;8.27;;
5591;SDS011;2818;49.790;9.958;2022-10-18T06:06:35;11.27;;;8.33;;
5591;SDS011;2818;49.790;9.958;2022-10-18T06:09:03;18.10;;;7.70;;
5591;SDS011;2818;49.790;9.958;2022-10-18T06:11:32;17.70;;;8.33;;
5591;SDS011;2818;49.790;9.958;2022-10-18T06:13:59;14.83;;;8.33;;
5591;SDS011;2818;49.790;9.958;2022-10-18T06:16:27;16.63;;;8.30;;
5591;SDS011;2818;49.790;9.958;2022-10-18T06:18:57;14.53;;;8.73;;
5591;SDS011;2818;49.790;9.958;2022-10-18T06:21:25;11.87;;;8.20;;
5591;SDS011;2818;49.790;9.958;2022-10-18T06:23:53;13.80;;;8.77;;
5591;SDS011;2818;49.790;9.958;2022-10-18T06:26:21;10.53;;;7.53;;
5591;SDS011;2818;49.790;9.958;2022-10-18T06:28:49;14.47;;;8.70;;
5591;SDS011;2818;49.790;9.958;2022-10-18T06:31:16;12.63;;;8.50;;
5591;SDS011;2818;49.790;9.958;2022-10-18T06:33:43;15.57;;;8.57;;
5591;SDS011;2818;49.790;9.958;2022-10-18T06:36:18;11.50;;;8.30;;
5591;SDS011;2818;49.790;9.958;2022-10-18T06:38:49;14.80;;;8.83;;
5591;SDS011;2818;49.790;9.958;2022-10-18T06:41:16;14.07;;;9.83;;
5591;SDS011;2818;49.790;9.958;2022-10-18T06:43:51;20.57;;;9.83;;
5591;SDS011;2818;49.790;9.958;2022-10-18T06:46:22;10.23;;;8.53;;
5591;SDS011;2818;49.790;9.958;2022-10-18T06:48:49;17.60;;;8.73;;
5591;SDS011;2818;49.790;9.958;2022-10-18T06:51:16;14.70;;;9.63;;
5591;SDS011;2818;49.790;9.958;2022-10-18T06:53:43;15.73;;;8.87;;
5591;SDS011;2818;49.790;9.958;2022-10-18T06:56:24;18.20;;;9.83;;
5591;SDS011;2818;49.790;9.958;2022-10-18T06:58:51;15.93;;;10.00;;
5591;SDS011;2818;49.790;9.958;2022-10-18T07:01:18;11.47;;;8.87;;
5591;SDS011;2818;49.790;9.958;2022-10-18T07:03:46;15.30;;;9.00;;
5591;SDS011;2818;49.790;9.958;2022-10-18T07:06:15;14.27;;;8.73;;
5591;SDS011;2818;49.790;9.958;2022-10-18T07:08:44;14.80;;;8.57;;
5591;SDS011;2818;49.790;9.958;2022-10-18T07:11:15;20.60;;;9.40;;
5591;SDS011;2818;49.790;9.958;2022-10-18T07:13:44;16.40;;;9.10;;
5591;SDS011;2818;49.790;9.958;2022-10-18T07:16:14;11.03;;;8.93;;
5591;SDS011;2818;49.790;9.958;2022-10-18T07:18:47;14.97;;;9.20;;
5591;SDS011;2818;49.790;9.958;2022-10-18T07:21:17;15.43;;;8.53;;
5591;SDS011;2818;49.790;9.958;2022-10-18T07:23:45;12.13;;;8.47;;
5591;SDS011;2818;49.790;9.958;2022-10-18T07:28:43;16.60;;;8.90;;
5591;SDS011;2818;49.790;9.958;2022-10-18T07:31:12;9.00;;;8.20;;
5591;SDS011;2818;49.790;9.958;2022-10-18T07:33:39;14.17;;;7.53;;
5591;SDS011;2818;49.790;9.958;2022-10-18T07:36:08;9.60;;;8.60;;
5591;SDS011;2818;49.790;9.958;2022-10-18T07:38:37;12.70;;;8.20;;
5591;SDS011;2818;49.790;9.958;2022-10-18T07:41:05;11.63;;;8.83;;
5591;SDS011;2818;49.790;9.958;2022-10-18T07:43:32;11.97;;;8.30;;
5591;SDS011;2818;49.790;9.958;2022-10-18T07:46:01;10.83;;;8.63;;
5591;SDS011;2818;49.790;9.958;2022-10-18T07:48:29;13.30;;;7.63;;
5591;SDS011;2818;49.790;9.958;2022-10-18T07:50:57;13.37;;;8.40;;
5591;SDS011;2818;49.790;9.958;2022-10-18T07:53:25;12.00;;;7.73;;
5591;SDS011;2818;49.790;9.958;2022-10-18T07:56:00;12.57;;;8.20;;
5591;SDS011;2818;49.790;9.958;2022-10-18T07:58:33;15.53;;;8.50;;
5591;SDS011;2818;49.790;9.958;2022-10-18T08:01:01;12.90;;;7.77;;
5591;SDS011;2818;49.790;9.958;2022-10-18T08:03:29;17.37;;;9.00;;
5591;SDS011;2818;49.790;9.958;2022-10-18T08:05:56;10.00;;;8.87;;
5591;SDS011;2818;49.790;9.958;2022-10-18T08:08:23;10.77;;;8.33;;
5591;SDS011;2818;49.790;9.958;2022-10-18T08:10:51;10.50;;;7.93;;
5591;SDS011;2818;49.790;9.958;2022-10-18T08:13:17;18.27;;;8.70;;
5591;SDS011;2818;49.790;9.958;2022-10-18T08:15:44;9.27;;;8.30;;
5591;SDS011;2818;49.790;9.958;2022-10-18T08:18:12;10.10;;;7.77;;
5591;SDS011;2818;49.790;9.958;2022-10-18T08:20:44;11.40;;;8.70;;
5591;SDS011;2818;49.790;9.958;2022-10-18T08:23:12;10.10;;;7.70;;
5591;SDS011;2818;49.790;9.958;2022-10-18T08:25:39;18.10;;;8.30;;
5591;SDS011;2818;49.790;9.958;2022-10-18T08:28:06;12.83;;;7.63;;
5591;SDS011;2818;49.790;9.958;2022-10-18T08:30:33;9.80;;;7.53;;
5591;SDS011;2818;49.790;9.958;2022-10-18T08:33:01;12.73;;;8.40;;
5591;SDS011;2818;49.790;9.958;2022-10-18T08:35:29;16.13;;;7.43;;
5591;SDS011;2818;49.790;9.958;2022-10-18T08:37:57;13.57;;;7.97;;
5591;SDS011;2818;49.790;9.958;2022-10-18T08:40:24;9.63;;;8.20;;
5591;SDS011;2818;49.790;9.958;2022-10-18T08:45:28;14.47;;;8.43;;
5591;SDS011;2818;49.790;9.958;2022-10-18T08:48:15;14.40;;;8.20;;
5591;SDS011;2818;49.790;9.958;2022-10-18T08:50:47;14.27;;;7.93;;
5591;SDS011;2818;49.790;9.958;2022-10-18T08:56:01;17.90;;;9.80;;
5591;SDS011;2818;49.790;9.958;2022-10-18T08:58:36;12.80;;;8.83;;
5591;SDS011;2818;49.790;9.958;2022-10-18T09:01:14;18.50;;;8.07;;
5591;SDS011;2818;49.790;9.958;2022-10-18T09:06:32;15.00;;;9.50;;
5591;SDS011;2818;49.790;9.958;2022-10-18T09:12:02;12.97;;;9.67;;
5591;SDS011;2818;49.790;9.958;2022-10-18T09:25:36;21.03;;;9.87;;
5591;SDS011;2818;49.790;9.958;2022-10-18T09:31:07;19.43;;;11.83;;
5591;SDS011;2818;49.790;9.958;2022-10-18T09:34:52;16.50;;;10.70;;
5591;SDS011;2818;49.790;9.958;2022-10-18T09:36:46;12.33;;;10.47;;
5591;SDS011;2818;49.790;9.958;2022-10-18T09:39:21;15.03;;;10.57;;
5591;SDS011;2818;49.790;9.958;2022-10-18T09:42:02;17.20;;;10.67;;
5591;SDS011;2818;49.790;9.958;2022-10-18T09:44:58;16.57;;;10.60;;
5591;SDS011;2818;49.790;9.958;2022-10-18T09:47:47;15.87;;;10.30;;
5591;SDS011;2818;49.790;9.958;2022-10-18T09:50:54;14.27;;;10.53;;
5591;SDS011;2818;49.790;9.958;2022-10-18T09:56:29;11.23;;;8.80;;
5591;SDS011;2818;49.790;9.958;2022-10-18T09:59:34;16.73;;;9.00;;
5591;SDS011;2818;49.790;9.958;2022-10-18T10:02:18;12.50;;;9.50;;
5591;SDS011;2818;49.790;9.958;2022-10-18T10:04:48;15.23;;;9.50;;
5591;SDS011;2818;49.790;9.958;2022-10-18T10:07:20;17.03;;;9.97;;
5591;SDS011;2818;49.790;9.958;2022-10-18T10:12:37;13.10;;;10.60;;
5591;SDS011;2818;49.790;9.958;2022-10-18T10:15:39;12.73;;;9.80;;
5591;SDS011;2818;49.790;9.958;2022-10-18T10:18:07;13.07;;;10.57;;
5591;SDS011;2818;49.790;9.958;2022-10-18T10:21:02;10.47;;;9.50;;
5591;SDS011;2818;49.790;9.958;2022-10-18T10:23:35;15.77;;;11.20;;
5591;SDS011;2818;49.790;9.958;2022-10-18T10:26:50;12.03;;;10.10;;
5591;SDS011;2818;49.790;9.958;2022-10-18T10:28:58;12.20;;;11.00;;
5591;SDS011;2818;49.790;9.958;2022-10-18T10:31:29;14.40;;;11.20;;
5591;SDS011;2818;49.790;9.958;2022-10-18T10:34:04;12.37;;;11.00;;
5591;SDS011;2818;49.790;9.958;2022-10-18T10:36:31;14.23;;;11.10;;
5591;SDS011;2818;49.790;9.958;2022-10-18T10:41:51;15.97;;;10.80;;
5591;SDS011;2818;49.790;9.958;2022-10-18T10:44:29;15.37;;;10.57;;
5591;SDS011;2818;49.790;9.958;2022-10-18T10:47:01;13.70;;;10.43;;
5591;SDS011;2818;49.790;9.958;2022-10-18T10:49:47;12.77;;;10.97;;
5591;SDS011;2818;49.790;9.958;2022-10-18T10:52:17;12.37;;;10.60;;
5591;SDS011;2818;49.790;9.958;2022-10-18T10:54:54;15.00;;;9.73;;
5591;SDS011;2818;49.790;9.958;2022-10-18T10:57:46;12.60;;;9.20;;
5591;SDS011;2818;49.790;9.958;2022-10-18T11:03:06;12.43;;;8.90;;
5591;SDS011;2818;49.790;9.958;2022-10-18T11:05:56;10.40;;;9.30;;
5591;SDS011;2818;49.790;9.958;2022-10-18T11:08:27;11.43;;;9.10;;
5591;SDS011;2818;49.790;9.958;2022-10-18T11:11:20;11.93;;;9.23;;
5591;SDS011;2818;49.790;9.958;2022-10-18T11:14:07;9.57;;;8.87;;
5591;SDS011;2818;49.790;9.958;2022-10-18T11:20:06;17.20;;;9.90;;
5591;SDS011;2818;49.790;9.958;2022-10-18T11:22:38;15.73;;;10.17;;
5591;SDS011;2818;49.790;9.958;2022-10-18T11:25:15;13.43;;;9.43;;
5591;SDS011;2818;49.790;9.958;2022-10-18T11:35:46;15.87;;;9.27;;
5591;SDS011;2818;49.790;9.958;2022-10-18T11:41:18;14.30;;;9.37;;
5591;SDS011;2818;49.790;9.958;2022-10-18T11:44:00;14.30;;;8.80;;
5591;SDS011;2818;49.790;9.958;2022-10-18T11:49:43;9.70;;;8.90;;
5591;SDS011;2818;49.790;9.958;2022-10-18T12:03:10;10.90;;;9.80;;
5591;SDS011;2818;49.790;9.958;2022-10-18T12:05:56;10.07;;;8.87;;
5591;SDS011;2818;49.790;9.958;2022-10-18T12:08:39;12.23;;;9.27;;
5591;SDS011;2818;49.790;9.958;2022-10-18T12:11:18;11.53;;;9.40;;
5591;SDS011;2818;49.790;9.958;2022-10-18T12:14:02;8.90;;;8.10;;
5591;SDS011;2818;49.790;9.958;2022-10-18T12:16:33;10.70;;;9.03;;
5591;SDS011;2818;49.790;9.958;2022-10-18T12:19:26;9.33;;;8.43;;
5591;SDS011;2818;49.790;9.958;2022-10-18T12:21:55;9.07;;;8.33;;
5591;SDS011;2818;49.790;9.958;2022-10-18T12:24:28;9.47;;;8.57;;
5591;SDS011;2818;49.790;9.958;2022-10-18T12:26:58;9.87;;;8.90;;
5591;SDS011;2818;49.790;9.958;2022-10-18T12:29:28;10.10;;;8.90;;
5591;SDS011;2818;49.790;9.958;2022-10-18T12:32:02;9.43;;;8.37;;
5591;SDS011;2818;49.790;9.958;2022-10-18T12:34:37;14.00;;;8.50;;
5591;SDS011;2818;49.790;9.958;2022-10-18T12:39:55;10.67;;;8.50;;
5591;SDS011;2818;49.790;9.958;2022-10-18T12:42:47;9.07;;;8.00;;
5591;SDS011;2818;49.790;9.958;2022-10-18T12:45:29;9.33;;;8.17;;
5591;SDS011;2818;49.790;9.958;2022-10-18T12:48:06;9.57;;;8.53;;
5591;SDS011;2818;49.790;9.958;2022-10-18T12:50:48;8.73;;;7.93;;
5591;SDS011;2818;49.790;9.958;2022-10-18T12:53:29;8.07;;;7.30;;
5591;SDS011;2818;49.790;9.958;2022-10-18T13:12:41;7.70;;;7.00;;
5591;SDS011;2818;49.790;9.958;2022-10-18T13:15:34;7.53;;;6.93;;
5591;SDS011;2818;49.790;9.958;2022-10-18T13:18:17;10.17;;;6.10;;
5591;SDS011;2818;49.790;9.958;2022-10-18T13:20:49;7.67;;;6.70;;
5591;SDS011;2818;49.790;9.958;2022-10-18T13:26:36;8.03;;;5.37;;
5591;SDS011;2818;49.790;9.958;2022-10-18T13:35:48;6.33;;;5.00;;
5591;SDS011;2818;49.790;9.958;2022-10-18T13:41:11;4.10;;;3.70;;
5591;SDS011;2818;49.790;9.958;2022-10-18T13:46:22;2.43;;;2.30;;
5591;SDS011;2818;49.790;9.958;2022-10-18T13:48:59;2.00;;;1.90;;
5591;SDS011;2818;49.790;9.958;2022-10-18T13:54:34;2.33;;;2.10;;
5591;SDS011;2818;49.790;9.958;2022-10-18T13:57:07;2.03;;;1.90;;
5591;SDS011;2818;49.790;9.958;2022-10-18T14:02:52;2.00;;;1.80;;
5591;SDS011;2818;49.790;9.958;2022-10-18T14:13:44;2.90;;;1.80;;
5591;SDS011;2818;49.790;9.958;2022-10-18T14:16:37;4.77;;;2.40;;
5591;SDS011;2818;49.790;9.958;2022-10-18T14:22:09;1.67;;;1.57;;
5591;SDS011;2818;49.790;9.958;2022-10-18T14:24:45;1.67;;;1.50;;
5591;SDS011;2818;49.790;9.958;2022-10-18T14:27:23;2.20;;;1.60;;
5591;SDS011;2818;49.790;9.958;2022-10-18T14:30:08;1.50;;;1.50;;
5591;SDS011;2818;49.790;9.958;2022-10-18T14:32:46;2.23;;;1.40;;
5591;SDS011;2818;49.790;9.958;2022-10-18T14:35:19;1.60;;;1.60;;
5591;SDS011;2818;49.790;9.958;2022-10-18T14:38:03;3.30;;;1.70;;
5591;SDS011;2818;49.790;9.958;2022-10-18T14:40:39;2.50;;;1.50;;
5591;SDS011;2818;49.790;9.958;2022-10-18T14:43:13;1.80;;;1.70;;
5591;SDS011;2818;49.790;9.958;2022-10-18T14:45:44;1.47;;;1.37;;
5591;SDS011;2818;49.790;9.958;2022-10-18T14:48:15;1.33;;;1.33;;
5591;SDS011;2818;49.790;9.958;2022-10-18T14:50:46;1.70;;;1.33;;
5591;SDS011;2818;49.790;9.958;2022-10-18T14:53:25;2.70;;;1.57;;
5591;SDS011;2818;49.790;9.958;2022-10-18T14:55:58;2.50;;;1.60;;
5591;SDS011;2818;49.790;9.958;2022-10-18T14:58:26;1.90;;;1.50;;
5591;SDS011;2818;49.790;9.958;2022-10-18T15:00:54;1.63;;;1.60;;
5591;SDS011;2818;49.790;9.958;2022-10-18T15:03:21;1.57;;;1.47;;
5591;SDS011;2818;49.790;9.958;2022-10-18T15:05:59;1.50;;;1.50;;
5591;SDS011;2818;49.790;9.958;2022-10-18T15:08:34;1.20;;;1.10;;
5591;SDS011;2818;49.790;9.958;2022-10-18T15:11:04;1.27;;;1.27;;
5591;SDS011;2818;49.790;9.958;2022-10-18T15:13:42;1.20;;;1.20;;
5591;SDS011;2818;49.790;9.958;2022-10-18T15:16:25;4.03;;;1.50;;
5591;SDS011;2818;49.790;9.958;2022-10-18T15:19:06;3.23;;;1.30;;
5591;SDS011;2818;49.790;9.958;2022-10-18T15:21:57;1.67;;;1.20;;
5591;SDS011;2818;49.790;9.958;2022-10-18T15:24:44;2.20;;;1.30;;
5591;SDS011;2818;49.790;9.958;2022-10-18T15:27:45;1.53;;;1.43;;
5591;SDS011;2818;49.790;9.958;2022-10-18T15:30:27;1.60;;;1.50;;
5591;SDS011;2818;49.790;9.958;2022-10-18T15:33:02;1.70;;;1.60;;
5591;SDS011;2818;49.790;9.958;2022-10-18T15:35:31;1.50;;;1.40;;
5591;SDS011;2818;49.790;9.958;2022-10-18T15:38:45;3.37;;;1.47;;
5591;SDS011;2818;49.790;9.958;2022-10-18T15:40:49;2.60;;;1.70;;
5591;SDS011;2818;49.790;9.958;2022-10-18T15:51:01;1.37;;;1.30;;
5591;SDS011;2818;49.790;9.958;2022-10-18T15:53:51;1.37;;;1.27;;
5591;SDS011;2818;49.790;9.958;2022-10-18T15:56:26;1.43;;;1.30;;
5591;SDS011;2818;49.790;9.958;2022-10-18T15:59:04;1.20;;;1.20;;
5591;SDS011;2818;49.790;9.958;2022-10-18T16:01:45;1.47;;;1.20;;
5591;SDS011;2818;49.790;9.958;2022-10-18T16:04:23;1.13;;;1.13;;
5591;SDS011;2818;49.790;9.958;2022-10-18T16:06:52;1.10;;;1.10;;
5591;SDS011;2818;49.790;9.958;2022-10-18T16:09:21;1.57;;;1.57;;
5591;SDS011;2818;49.790;9.958;2022-10-18T16:11:50;1.50;;;1.40;;
5591;SDS011;2818;49.790;9.958;2022-10-18T16:14:22;1.57;;;1.40;;
5591;SDS011;2818;49.790;9.958;2022-10-18T16:16:53;2.33;;;1.47;;
5591;SDS011;2818;49.790;9.958;2022-10-18T16:19:26;5.70;;;1.40;;
5591;SDS011;2818;49.790;9.958;2022-10-18T16:21:53;1.60;;;1.50;;
5591;SDS011;2818;49.790;9.958;2022-10-18T16:24:20;1.60;;;1.50;;
5591;SDS011;2818;49.790;9.958;2022-10-18T16:26:48;1.80;;;1.70;;
5591;SDS011;2818;49.790;9.958;2022-10-18T16:29:16;1.90;;;1.80;;
5591;SDS011;2818;49.790;9.958;2022-10-18T16:31:49;2.13;;;1.90;;
5591;SDS011;2818;49.790;9.958;2022-10-18T16:34:18;2.00;;;1.90;;
5591;SDS011;2818;49.790;9.958;2022-10-18T16:36:45;2.00;;;2.00;;
5591;SDS011;2818;49.790;9.958;2022-10-18T16:39:15;2.43;;;2.17;;
5591;SDS011;2818;49.790;9.958;2022-10-18T16:41:43;2.33;;;2.13;;
5591;SDS011;2818;49.790;9.958;2022-10-18T16:44:11;2.07;;;2.00;;
5591;SDS011;2818;49.790;9.958;2022-10-18T16:46:38;3.67;;;2.40;;
5591;SDS011;2818;49.790;9.958;2022-10-18T16:49:06;4.90;;;2.40;;
5591;SDS011;2818;49.790;9.958;2022-10-18T16:51:36;6.30;;;2.77;;
5591;SDS011;2818;49.790;9.958;2022-10-18T16:54:03;2.80;;;2.60;;
5591;SDS011;2818;49.790;9.958;2022-10-18T16:56:30;3.00;;;2.90;;
5591;SDS011;2818;49.790;9.958;2022-10-18T16:58:58;6.83;;;2.90;;
5591;SDS011;2818;49.790;9.958;2022-10-18T17:01:26;3.00;;;2.80;;
5591;SDS011;2818;49.790;9.958;2022-10-18T17:03:53;3.30;;;3.10;;
5591;SDS011;2818;49.790;9.958;2022-10-18T17:06:24;3.60;;;2.97;;
5591;SDS011;2818;49.790;9.958;2022-10-18T17:08:53;3.03;;;2.80;;
5591;SDS011;2818;49.790;9.958;2022-10-18T17:11:21;4.70;;;3.17;;
5591;SDS011;2818;49.790;9.958;2022-10-18T17:13:49;2.80;;;2.70;;
5591;SDS011;2818;49.790;9.958;2022-10-18T17:18:59;2.87;;;2.77;;
5591;SDS011;2818;49.790;9.958;2022-10-18T17:21:28;3.23;;;2.93;;
5591;SDS011;2818;49.790;9.958;2022-10-18T17:23:55;2.53;;;2.43;;
5591;SDS011;2818;49.790;9.958;2022-10-18T17:26:26;2.40;;;2.30;;
5591;SDS011;2818;49.790;9.958;2022-10-18T17:28:59;5.03;;;2.60;;
5591;SDS011;2818;49.790;9.958;2022-10-18T17:31:28;3.00;;;2.57;;
5591;SDS011;2818;49.790;9.958;2022-10-18T17:33:56;2.70;;;2.53;;
5591;SDS011;2818;49.790;9.958;2022-10-18T17:36:24;5.93;;;3.20;;
5591;SDS011;2818;49.790;9.958;2022-10-18T17:38:54;3.37;;;2.80;;
5591;SDS011;2818;49.790;9.958;2022-10-18T17:41:21;3.27;;;2.90;;
5591;SDS011;2818;49.790;9.958;2022-10-18T17:43:48;3.43;;;3.23;;
5591;SDS011;2818;49.790;9.958;2022-10-18T17:46:15;3.53;;;3.03;;
5591;SDS011;2818;49.790;9.958;2022-10-18T17:48:43;3.90;;;3.53;;
5591;SDS011;2818;49.790;9.958;2022-10-18T17:51:11;8.43;;;4.97;;
5591;SDS011;2818;49.790;9.958;2022-10-18T17:53:40;8.17;;;5.97;;
5591;SDS011;2818;49.790;9.958;2022-10-18T17:56:07;6.73;;;5.20;;
5591;SDS011;2818;49.790;9.958;2022-10-18T17:58:35;4.53;;;4.20;;
5591;SDS011;2818;49.790;9.958;2022-10-18T18:01:15;4.40;;;4.03;;
5591;SDS011;2818;49.790;9.958;2022-10-18T18:03:46;3.67;;;3.57;;
5591;SDS011;2818;49.790;9.958;2022-10-18T18:06:17;5.43;;;4.70;;
5591;SDS011;2818;49.790;9.958;2022-10-18T18:08:46;7.37;;;5.70;;
5591;SDS011;2818;49.790;9.958;2022-10-18T18:11:14;4.90;;;4.50;;